Carora, Venezuela
Current Conditions -  °F | °C
As of 12:00 PM on Monday 26 Jan 2015 (Local Time) from SVBM Reporting Station
Scattered Clouds Scattered Clouds  
Wind Chill: 27°   Ceiling: Unl
Heat Index: 28°   Visibility: 6mi
Dew Point: 17°   Wind: 14mph
Humidity: 54%   Direction: 110°ESE
Pressure: 30"   Gusts: NA
Location:  10.19°N, 70.08°W
Report Text: SVBM 261600Z 11012KT 9999 SCT016 27/17 Q1016
Loading
Personal Weather Stations






























Interactive Weather Map New forecast layout! Learn more

10-Day Weather Forecast

Advertisements
Track Severe Weather on mobile